createdAt,value
2022-08-03T00:00:24.360Z,22.13
2022-08-03T00:02:51.121Z,22.14
2022-08-03T00:05:17.793Z,22.06
2022-08-03T00:07:44.451Z,22.07
2022-08-03T00:10:12.686Z,22.04
2022-08-03T00:12:42.243Z,22.00
2022-08-03T00:15:11.298Z,21.97
2022-08-03T00:17:52.934Z,21.89
2022-08-03T00:20:21.659Z,21.90
2022-08-03T00:22:48.737Z,21.89
2022-08-03T00:25:15.383Z,21.86
2022-08-03T00:27:42.022Z,21.82
2022-08-03T00:30:09.345Z,21.79
2022-08-03T00:32:41.368Z,21.77
2022-08-03T00:35:18.289Z,21.73
2022-08-03T00:37:58.977Z,21.65
2022-08-03T00:40:28.286Z,21.58
2022-08-03T00:42:59.588Z,21.62
2022-08-03T00:45:37.647Z,21.64
2022-08-03T00:48:19.683Z,21.58
2022-08-03T00:50:55.268Z,21.51
2022-08-03T00:53:24.308Z,21.53
2022-08-03T00:55:51.196Z,21.33
2022-08-03T00:58:21.095Z,21.49
2022-08-03T01:00:47.706Z,21.47
2022-08-03T01:03:14.309Z,21.44
2022-08-03T01:05:59.047Z,21.39
2022-08-03T01:08:51.665Z,21.40
2022-08-03T01:11:37.468Z,21.35
2022-08-03T01:14:39.231Z,21.30
2022-08-03T01:17:23.287Z,21.30
2022-08-03T01:19:56.368Z,21.24
2022-08-03T01:22:57.125Z,21.22
2022-08-03T01:25:54.408Z,21.19
2022-08-03T01:29:05.700Z,21.16
2022-08-03T01:32:58.606Z,21.12
2022-08-03T01:34:41.418Z,21.10
2022-08-03T01:37:10.813Z,21.08
2022-08-03T01:39:41.149Z,21.09
2022-08-03T01:42:11.709Z,21.02
2022-08-03T01:44:41.733Z,21.04
2022-08-03T01:47:09.522Z,21.00
2022-08-03T01:49:40.858Z,20.93
2022-08-03T01:52:08.940Z,20.94
2022-08-03T01:54:45.464Z,20.75
2022-08-03T01:57:14.356Z,20.91
2022-08-03T01:59:43.227Z,20.89
2022-08-03T02:02:29.868Z,20.90
2022-08-03T02:05:05.924Z,20.86
2022-08-03T02:07:39.919Z,20.83
2022-08-03T02:10:07.635Z,20.77
2022-08-03T02:12:37.137Z,20.79
2022-08-03T02:15:07.071Z,20.71
2022-08-03T02:17:39.693Z,20.76
2022-08-03T02:20:09.067Z,20.72
2022-08-03T02:22:36.303Z,20.69
2022-08-03T02:25:05.504Z,20.68
2022-08-03T02:27:43.135Z,20.68
2022-08-03T02:30:14.364Z,20.63
2022-08-03T02:32:44.098Z,20.63
2022-08-03T02:35:14.952Z,20.61
2022-08-03T02:37:59.951Z,20.60
2022-08-03T02:40:34.224Z,20.56
2022-08-03T02:43:05.623Z,20.53
2022-08-03T02:45:36.737Z,20.52
2022-08-03T02:48:07.548Z,20.47
2022-08-03T02:50:35.176Z,20.46
2022-08-03T02:53:03.303Z,20.44
2022-08-03T02:55:31.917Z,20.39
2022-08-03T02:58:01.493Z,20.42
2022-08-03T03:00:29.870Z,20.41
2022-08-03T03:02:59.591Z,20.41
2022-08-03T03:05:54.652Z,20.34
2022-08-03T03:08:17.766Z,20.28
2022-08-03T03:10:46.629Z,20.29
2022-08-03T03:13:16.002Z,20.21
2022-08-03T03:15:47.478Z,20.33
2022-08-03T03:18:22.078Z,20.11
2022-08-03T03:20:53.060Z,20.25
2022-08-03T03:23:22.198Z,20.17
2022-08-03T03:25:52.279Z,20.19
2022-08-03T03:28:19.463Z,20.18
2022-08-03T03:30:52.876Z,20.15
2022-08-03T03:33:21.674Z,19.94
2022-08-03T03:35:48.592Z,20.09
2022-08-03T03:38:15.241Z,20.07
2022-08-03T03:40:42.342Z,20.05
2022-08-03T03:43:10.572Z,20.05
2022-08-03T03:45:37.827Z,19.97
2022-08-03T03:48:05.770Z,19.96
2022-08-03T03:50:33.412Z,19.87
2022-08-03T03:53:00.515Z,19.99
2022-08-03T03:55:27.443Z,19.94
2022-08-03T03:57:54.785Z,19.95
2022-08-03T04:00:21.802Z,19.94
2022-08-03T04:02:48.447Z,19.84
2022-08-03T04:05:34.304Z,19.90
2022-08-03T04:08:27.838Z,19.88
2022-08-03T04:11:29.021Z,19.87
2022-08-03T04:14:02.838Z,19.87
2022-08-03T04:16:33.782Z,19.92
2022-08-03T04:19:08.167Z,19.92
2022-08-03T04:21:38.188Z,19.95
2022-08-03T04:24:09.065Z,19.98
2022-08-03T04:26:39.603Z,20.00
2022-08-03T04:29:09.188Z,19.94
2022-08-03T04:31:38.411Z,20.05
2022-08-03T04:34:05.129Z,20.14
2022-08-03T04:36:33.929Z,20.11
2022-08-03T04:39:02.457Z,20.18
2022-08-03T04:41:30.907Z,20.14
2022-08-03T04:44:02.151Z,20.28
2022-08-03T04:46:34.612Z,20.35
2022-08-03T04:49:04.447Z,20.21
2022-08-03T04:51:31.847Z,20.46
2022-08-03T04:53:59.463Z,20.52
2022-08-03T04:56:26.071Z,20.55
2022-08-03T04:58:53.089Z,20.57
2022-08-03T05:01:20.905Z,20.75
2022-08-03T05:03:47.492Z,21.09
2022-08-03T05:06:16.277Z,22.75
2022-08-03T05:08:47.036Z,24.77
2022-08-03T05:11:16.560Z,26.30
2022-08-03T05:13:44.204Z,27.70
2022-08-03T05:16:11.896Z,28.89
2022-08-03T05:18:38.544Z,29.95
2022-08-03T05:21:05.279Z,30.73
2022-08-03T05:23:31.985Z,30.97
2022-08-03T05:25:58.585Z,31.78
2022-08-03T05:28:27.451Z,32.43
2022-08-03T05:30:54.047Z,32.91
2022-08-03T05:33:20.663Z,33.23
2022-08-03T05:35:57.476Z,33.65
2022-08-03T05:38:34.078Z,34.24
2022-08-03T05:41:21.089Z,33.55
2022-08-03T05:43:49.702Z,34.08
2022-08-03T05:46:18.767Z,34.63
2022-08-03T05:48:45.558Z,35.22
2022-08-03T05:51:12.463Z,35.92
2022-08-03T05:53:43.313Z,36.36
2022-08-03T05:56:13.771Z,36.72
2022-08-03T05:58:49.194Z,36.99
2022-08-03T06:01:17.284Z,37.23
2022-08-03T06:03:45.330Z,37.70
2022-08-03T06:06:12.186Z,37.60
2022-08-03T06:08:41.885Z,37.29
2022-08-03T06:11:11.189Z,37.28
2022-08-03T06:13:41.313Z,37.83
2022-08-03T06:16:08.120Z,38.14
2022-08-03T06:18:35.439Z,38.06
2022-08-03T06:21:14.724Z,37.37
2022-08-03T06:23:52.818Z,37.68
2022-08-03T06:26:20.262Z,38.21
2022-08-03T06:28:52.711Z,38.57
2022-08-03T06:31:32.240Z,38.92
2022-08-03T06:34:33.749Z,39.26
2022-08-03T06:36:51.113Z,39.43
2022-08-03T06:39:19.401Z,39.61
2022-08-03T06:41:45.939Z,39.64
2022-08-03T06:44:12.874Z,39.67
2022-08-03T06:46:39.817Z,40.09
2022-08-03T06:49:10.122Z,40.37
2022-08-03T06:52:04.327Z,40.24
2022-08-03T06:54:24.531Z,40.49
2022-08-03T06:56:51.153Z,40.71
2022-08-03T07:00:09.904Z,40.83
2022-08-03T07:02:06.647Z,41.14
2022-08-03T07:04:35.851Z,41.07
2022-08-03T07:07:02.438Z,41.15
2022-08-03T07:09:29.008Z,41.16
2022-08-03T07:11:55.637Z,41.43
2022-08-03T07:14:22.220Z,41.30
2022-08-03T07:16:51.029Z,41.40
2022-08-03T07:19:17.583Z,41.24
2022-08-03T07:21:47.261Z,41.16
2022-08-03T07:24:13.821Z,41.35
2022-08-03T07:26:40.381Z,41.47
2022-08-03T07:29:11.895Z,41.51
2022-08-03T07:31:42.211Z,41.79
2022-08-03T07:34:08.795Z,42.13
2022-08-03T07:36:35.363Z,42.09
2022-08-03T07:39:02.045Z,41.73
2022-08-03T07:41:43.194Z,41.88
2022-08-03T07:44:12.754Z,42.10
2022-08-03T07:46:44.182Z,42.03
2022-08-03T07:49:11.005Z,41.95
2022-08-03T07:51:38.268Z,41.84
2022-08-03T07:54:05.454Z,41.64
2022-08-03T07:56:34.560Z,41.78
2022-08-03T07:59:02.510Z,41.74
2022-08-03T08:01:30.099Z,41.51
2022-08-03T08:03:59.000Z,40.97
2022-08-03T08:06:25.611Z,41.22
2022-08-03T08:08:53.677Z,41.62
2022-08-03T08:11:22.330Z,41.79
2022-08-03T08:13:49.023Z,41.88
2022-08-03T08:16:15.582Z,42.17
2022-08-03T08:18:44.592Z,42.46
2022-08-03T08:21:11.118Z,42.33
2022-08-03T08:23:43.191Z,41.98
2022-08-03T08:26:11.450Z,41.87
2022-08-03T08:28:38.059Z,42.19
2022-08-03T08:31:04.827Z,42.35
2022-08-03T08:33:54.213Z,42.23
2022-08-03T08:36:19.052Z,42.45
2022-08-03T08:38:45.880Z,42.35
2022-08-03T08:41:14.502Z,42.14
2022-08-03T08:43:42.101Z,42.19
2022-08-03T08:46:23.194Z,42.24
2022-08-03T08:48:51.508Z,42.17
2022-08-03T08:51:20.475Z,42.00
2022-08-03T08:53:52.436Z,42.03
2022-08-03T08:56:22.979Z,41.71
2022-08-03T08:58:52.797Z,41.66
2022-08-03T09:01:22.674Z,41.75
2022-08-03T09:03:50.151Z,41.76
2022-08-03T09:06:17.029Z,41.60
2022-08-03T09:08:46.127Z,41.67
2022-08-03T09:11:12.998Z,41.43
2022-08-03T09:13:39.938Z,41.17
2022-08-03T09:16:20.797Z,41.10
2022-08-03T09:18:51.439Z,40.48
2022-08-03T09:21:33.471Z,40.05
2022-08-03T09:24:05.178Z,39.79
2022-08-03T09:26:36.671Z,39.41
2022-08-03T09:29:15.405Z,39.33
2022-08-03T09:31:47.849Z,38.94
2022-08-03T09:34:25.582Z,38.80
2022-08-03T09:36:57.858Z,38.67
2022-08-03T09:39:40.548Z,38.26
2022-08-03T09:42:08.879Z,37.88
2022-08-03T09:44:44.534Z,37.66
2022-08-03T09:47:15.845Z,37.47
2022-08-03T09:49:57.859Z,37.18
2022-08-03T09:52:49.967Z,36.94
2022-08-03T09:56:30.411Z,36.96
2022-08-03T09:58:10.440Z,36.97
2022-08-03T10:00:55.973Z,36.90
2022-08-03T10:03:23.191Z,36.92
2022-08-03T10:05:49.994Z,36.31
2022-08-03T10:08:18.527Z,36.23
2022-08-03T10:10:49.598Z,36.03
2022-08-03T10:13:19.670Z,35.97
2022-08-03T10:16:22.878Z,35.77
2022-08-03T10:18:38.325Z,35.75
2022-08-03T10:21:10.466Z,35.65
2022-08-03T10:23:40.898Z,35.57
2022-08-03T10:26:08.412Z,35.64
2022-08-03T10:28:45.284Z,35.51
2022-08-03T10:31:14.043Z,35.35
2022-08-03T10:33:51.297Z,35.28
2022-08-03T10:36:23.010Z,35.24
2022-08-03T10:38:55.169Z,35.32
2022-08-03T10:41:24.812Z,35.41
2022-08-03T10:44:05.842Z,35.18
2022-08-03T10:46:34.514Z,35.16
2022-08-03T10:49:01.939Z,35.11
2022-08-03T10:51:32.329Z,35.16
2022-08-03T10:54:01.599Z,34.97
2022-08-03T10:56:53.522Z,35.32
2022-08-03T10:59:47.173Z,35.37
2022-08-03T11:02:18.037Z,35.44
2022-08-03T11:04:49.884Z,35.38
2022-08-03T11:07:17.486Z,35.39
2022-08-03T11:09:55.217Z,35.27
2022-08-03T11:12:29.878Z,35.29
2022-08-03T11:15:08.585Z,35.25
2022-08-03T11:17:46.103Z,35.43
2022-08-03T11:20:51.227Z,35.63
2022-08-03T11:24:03.357Z,35.79
2022-08-03T11:26:33.008Z,35.64
2022-08-03T11:29:36.157Z,35.72
2022-08-03T11:32:02.738Z,35.85
2022-08-03T11:34:31.622Z,35.66
2022-08-03T11:37:26.331Z,35.98
2022-08-03T11:39:57.593Z,35.90
2022-08-03T11:42:24.494Z,35.82
2022-08-03T11:44:52.585Z,35.89
2022-08-03T11:47:22.985Z,35.97
2022-08-03T11:49:52.047Z,35.98
2022-08-03T11:52:19.569Z,35.54
2022-08-03T11:54:57.603Z,35.96
2022-08-03T11:58:57.762Z,36.08
2022-08-03T12:00:38.902Z,36.18
2022-08-03T12:03:11.939Z,36.29
2022-08-03T12:05:51.798Z,36.32
2022-08-03T12:08:40.220Z,36.09
2022-08-03T12:11:09.169Z,35.76
2022-08-03T12:14:44.468Z,35.72
2022-08-03T12:16:34.809Z,35.90
2022-08-03T12:19:04.211Z,36.03
2022-08-03T12:21:33.340Z,35.94
2022-08-03T12:24:02.559Z,35.60
2022-08-03T12:26:32.830Z,35.51
2022-08-03T12:28:59.552Z,35.48
2022-08-03T12:31:26.153Z,35.54
2022-08-03T12:34:08.356Z,35.64
2022-08-03T12:36:39.090Z,36.01
2022-08-03T12:39:07.447Z,36.13
2022-08-03T12:41:38.923Z,36.01
2022-08-03T12:44:08.960Z,35.73
2022-08-03T12:46:47.091Z,35.73
2022-08-03T12:49:17.382Z,35.53
2022-08-03T12:51:46.272Z,35.41
2022-08-03T12:54:32.079Z,35.42
2022-08-03T12:57:10.861Z,35.10
2022-08-03T12:59:53.217Z,35.15
2022-08-03T13:02:24.677Z,35.14
2022-08-03T13:04:53.342Z,34.97
2022-08-03T13:07:21.670Z,34.86
2022-08-03T13:09:56.282Z,34.84
2022-08-03T13:12:27.814Z,34.89
2022-08-03T13:15:01.059Z,34.99
2022-08-03T13:17:28.366Z,35.04
2022-08-03T13:19:55.820Z,35.20
2022-08-03T13:22:24.904Z,35.36
2022-08-03T13:24:53.447Z,35.41
2022-08-03T13:28:01.493Z,35.16
2022-08-03T13:30:08.944Z,35.39
2022-08-03T13:32:38.236Z,35.39
2022-08-03T13:35:05.608Z,35.12
2022-08-03T13:37:32.620Z,35.02
2022-08-03T13:40:02.549Z,35.00
2022-08-03T13:42:33.811Z,35.14
2022-08-03T13:45:01.090Z,35.24
2022-08-03T13:47:28.341Z,35.21
2022-08-03T13:50:01.485Z,35.27
2022-08-03T13:52:36.256Z,35.34
2022-08-03T13:55:05.625Z,35.25
2022-08-03T13:58:11.637Z,35.21
2022-08-03T14:00:26.944Z,35.23
2022-08-03T14:02:59.931Z,35.13
2022-08-03T14:05:32.029Z,34.94
2022-08-03T14:08:04.737Z,35.00
2022-08-03T14:10:42.518Z,34.92
2022-08-03T14:13:11.514Z,34.76
2022-08-03T14:15:38.774Z,34.66
2022-08-03T14:18:15.774Z,34.52
2022-08-03T14:20:49.996Z,34.32
2022-08-03T14:23:18.550Z,34.36
2022-08-03T14:25:52.509Z,34.40
2022-08-03T14:28:22.413Z,34.54
2022-08-03T14:30:49.777Z,34.47
2022-08-03T14:33:16.465Z,34.41
2022-08-03T14:35:43.309Z,34.30
2022-08-03T14:38:09.894Z,34.23
2022-08-03T14:40:36.500Z,34.36
2022-08-03T14:43:05.489Z,34.50
2022-08-03T14:45:32.113Z,34.50
2022-08-03T14:50:24.961Z,34.32
2022-08-03T14:50:51.378Z,34.57
2022-08-03T14:53:19.609Z,34.57
2022-08-03T14:55:49.837Z,34.61
2022-08-03T14:58:25.394Z,34.59
2022-08-03T15:00:53.390Z,34.66
2022-08-03T15:03:23.598Z,34.74
2022-08-03T15:05:52.947Z,34.69
2022-08-03T15:08:20.014Z,34.71
2022-08-03T15:10:46.735Z,34.55
2022-08-03T15:13:16.551Z,34.46
2022-08-03T15:15:43.576Z,34.42
2022-08-03T15:18:10.256Z,34.15
2022-08-03T15:20:44.520Z,34.06
2022-08-03T15:23:13.218Z,34.22
2022-08-03T15:26:03.908Z,34.23
2022-08-03T15:28:28.655Z,34.14
2022-08-03T15:30:55.264Z,34.17
2022-08-03T15:33:21.910Z,34.23
2022-08-03T15:35:49.723Z,34.29
2022-08-03T15:38:16.475Z,34.38
2022-08-03T15:40:43.118Z,34.44
2022-08-03T15:43:09.788Z,34.32
2022-08-03T15:45:37.071Z,34.37
2022-08-03T15:48:06.674Z,34.48
2022-08-03T15:50:33.192Z,34.48
2022-08-03T15:52:59.808Z,34.33
2022-08-03T15:55:26.743Z,34.19
2022-08-03T15:59:04.635Z,34.28
2022-08-03T16:00:41.231Z,34.21
2022-08-03T16:03:07.948Z,34.20
2022-08-03T16:05:35.464Z,34.04
2022-08-03T16:08:03.753Z,34.00
2022-08-03T16:10:32.713Z,33.89
2022-08-03T16:13:00.252Z,33.88
2022-08-03T16:15:27.577Z,34.01
2022-08-03T16:17:54.350Z,34.07
2022-08-03T16:20:31.419Z,33.98
2022-08-03T16:23:06.989Z,33.97
2022-08-03T16:25:40.268Z,33.99
2022-08-03T16:28:13.760Z,33.90
2022-08-03T16:30:42.774Z,33.93
2022-08-03T16:33:16.974Z,33.87
2022-08-03T16:35:45.393Z,33.75
2022-08-03T16:38:18.814Z,33.80
2022-08-03T16:40:47.173Z,33.52
2022-08-03T16:43:18.789Z,33.57
2022-08-03T16:45:49.446Z,33.58
2022-08-03T16:48:17.292Z,33.56
2022-08-03T16:50:44.562Z,33.36
2022-08-03T16:53:17.010Z,33.41
2022-08-03T16:55:52.404Z,33.26
2022-08-03T16:58:34.647Z,33.21
2022-08-03T17:01:22.626Z,33.28
2022-08-03T17:04:01.575Z,33.31
2022-08-03T17:06:33.803Z,33.26
2022-08-03T17:09:02.196Z,33.26
2022-08-03T17:11:33.155Z,33.23
2022-08-03T17:14:07.755Z,33.25
2022-08-03T17:16:36.259Z,33.27
2022-08-03T17:19:07.065Z,33.34
2022-08-03T17:21:39.261Z,33.32
2022-08-03T17:24:12.443Z,33.19
2022-08-03T17:26:44.649Z,33.05
2022-08-03T17:29:13.281Z,33.04
2022-08-03T17:31:48.703Z,32.98
2022-08-03T17:34:17.729Z,33.16
2022-08-03T17:39:57.528Z,32.64
2022-08-03T17:42:29.227Z,32.44
2022-08-03T17:45:15.784Z,32.30
2022-08-03T17:47:43.599Z,32.18
2022-08-03T17:50:23.912Z,32.08
2022-08-03T17:53:01.209Z,32.01
2022-08-03T17:55:57.429Z,31.94
2022-08-03T17:58:54.792Z,31.94
2022-08-03T18:02:03.317Z,31.87
2022-08-03T18:04:41.738Z,31.64
2022-08-03T18:07:15.752Z,31.65
2022-08-03T18:10:04.652Z,31.51
2022-08-03T18:13:10.858Z,31.65
2022-08-03T18:15:42.912Z,31.40
2022-08-03T18:18:11.333Z,31.31
2022-08-03T18:20:41.908Z,31.16
2022-08-03T18:23:11.007Z,31.22
2022-08-03T18:25:59.204Z,31.24
2022-08-03T18:28:27.839Z,31.16
2022-08-03T18:31:04.385Z,31.10
2022-08-03T18:34:17.196Z,31.21
2022-08-03T18:36:30.432Z,31.11
2022-08-03T18:39:02.403Z,31.23
2022-08-03T18:41:33.410Z,31.16
2022-08-03T18:44:07.155Z,31.12
2022-08-03T18:47:17.387Z,30.71
2022-08-03T18:49:53.933Z,30.67
2022-08-03T18:52:22.813Z,30.56
2022-08-03T18:55:20.683Z,30.39
2022-08-03T18:58:00.911Z,30.32
2022-08-03T19:00:34.161Z,29.99
2022-08-03T19:03:42.832Z,30.02
2022-08-03T19:09:12.631Z,29.88
2022-08-03T19:12:14.418Z,29.80
2022-08-03T19:14:52.443Z,29.74
2022-08-03T19:17:22.537Z,29.65
2022-08-03T19:19:58.887Z,29.55
2022-08-03T19:22:32.724Z,29.25
2022-08-03T19:25:01.800Z,29.33
2022-08-03T19:27:30.204Z,29.25
2022-08-03T19:30:02.907Z,29.21
2022-08-03T19:32:32.555Z,29.13
2022-08-03T19:35:01.860Z,29.06
2022-08-03T19:37:38.118Z,28.84
2022-08-03T19:40:10.232Z,28.79
2022-08-03T19:42:42.683Z,28.71
2022-08-03T19:45:15.512Z,28.71
2022-08-03T19:47:54.710Z,28.65
2022-08-03T19:50:21.421Z,28.57
2022-08-03T19:52:50.058Z,28.53
2022-08-03T19:55:21.062Z,28.48
2022-08-03T19:57:49.499Z,28.42
2022-08-03T20:00:19.562Z,28.35
2022-08-03T20:02:46.686Z,28.30
2022-08-03T20:05:15.228Z,28.17
2022-08-03T20:07:48.332Z,28.23
2022-08-03T20:10:16.831Z,28.19
2022-08-03T20:12:45.299Z,28.13
2022-08-03T20:15:12.043Z,28.11
2022-08-03T20:17:55.474Z,28.06
2022-08-03T20:20:33.296Z,27.98
2022-08-03T20:23:06.951Z,27.91
2022-08-03T20:25:57.109Z,27.87
2022-08-03T20:28:57.046Z,27.75
2022-08-03T20:31:32.389Z,27.68
2022-08-03T20:34:06.905Z,27.44
2022-08-03T20:36:35.727Z,27.60
2022-08-03T20:39:07.821Z,27.53
2022-08-03T20:41:35.743Z,27.49
2022-08-03T20:44:04.390Z,27.42
2022-08-03T20:46:41.744Z,27.36
2022-08-03T20:49:13.499Z,27.28
2022-08-03T20:51:49.972Z,27.21
2022-08-03T20:54:29.302Z,27.19
2022-08-03T20:57:04.239Z,27.13
2022-08-03T20:59:50.839Z,27.08
2022-08-03T21:02:29.603Z,27.07
2022-08-03T21:05:03.199Z,27.06
2022-08-03T21:08:03.949Z,27.03
2022-08-03T21:10:29.323Z,26.97
2022-08-03T21:13:01.364Z,30.02
2022-08-03T21:13:15.934Z,26.92
2022-08-03T21:16:03.239Z,26.89
2022-08-03T21:18:41.240Z,26.70
2022-08-03T21:21:12.414Z,26.79
2022-08-03T21:23:49.090Z,26.77
2022-08-03T21:26:20.507Z,26.71
2022-08-03T21:28:52.290Z,26.71
2022-08-03T21:31:25.427Z,26.63
2022-08-03T21:33:58.080Z,26.65
2022-08-03T21:36:29.577Z,26.61
2022-08-03T21:38:57.723Z,26.58
2022-08-03T21:41:26.973Z,26.51
2022-08-03T21:43:53.695Z,26.44
2022-08-03T21:46:21.574Z,26.44
2022-08-03T21:48:54.265Z,26.41
2022-08-03T21:51:25.061Z,26.36
2022-08-03T21:54:03.257Z,26.32
2022-08-03T21:56:51.362Z,26.27
2022-08-03T21:59:22.130Z,26.23
2022-08-03T22:01:55.418Z,26.18
2022-08-03T22:04:53.191Z,26.12
2022-08-03T22:07:12.295Z,26.07
2022-08-03T22:09:38.957Z,26.03
2022-08-03T22:12:08.288Z,26.01
2022-08-03T22:14:35.096Z,25.90
2022-08-03T22:17:06.254Z,25.87
2022-08-03T22:19:33.824Z,25.81
2022-08-03T22:22:04.621Z,25.77
2022-08-03T22:24:32.712Z,25.72
2022-08-03T22:27:37.102Z,25.49
2022-08-03T22:30:12.113Z,25.63
2022-08-03T22:32:40.119Z,25.59
2022-08-03T22:35:08.860Z,25.54
2022-08-03T22:37:36.520Z,25.51
2022-08-03T22:40:09.713Z,25.49
2022-08-03T22:42:40.139Z,25.43
2022-08-03T22:45:07.992Z,25.40
2022-08-03T22:47:36.659Z,25.40
2022-08-03T22:50:31.375Z,25.30
2022-08-03T22:53:00.451Z,25.22
2022-08-03T22:55:27.790Z,25.27
2022-08-03T22:57:56.208Z,25.22
2022-08-03T23:00:23.925Z,25.19
2022-08-03T23:02:51.984Z,25.18
2022-08-03T23:06:02.317Z,25.13
2022-08-03T23:08:15.083Z,25.05
2022-08-03T23:10:46.711Z,25.03
2022-08-03T23:13:17.055Z,24.98
2022-08-03T23:15:56.510Z,24.95
2022-08-03T23:18:24.782Z,24.88
2022-08-03T23:20:52.763Z,24.79
2022-08-03T23:23:22.337Z,24.76
2022-08-03T23:25:51.166Z,24.69
2022-08-03T23:28:18.430Z,24.61
2022-08-03T23:30:45.689Z,24.53
2022-08-03T23:33:17.242Z,24.48
2022-08-03T23:36:20.046Z,24.44
2022-08-03T23:38:47.516Z,24.24
2022-08-03T23:41:15.596Z,24.28
2022-08-03T23:43:51.044Z,24.26
2022-08-03T23:46:23.579Z,24.22
2022-08-03T23:48:50.969Z,24.19
2022-08-03T23:51:26.394Z,24.17
2022-08-03T23:54:06.219Z,24.13
2022-08-03T23:57:23.709Z,24.04
